Archiv-/Tagesdaten

--Timestamp---	Temp	Chill	HIndex	Humid	Dewpt	 Wind 	HiWind	WindDir	Rain 	Barom	Solar	 ET  	 UV 
--------------	----	-----	------	-----	-----	------	------	-------	-----	-----	-----	-----	----
20100719 00:00	15.3	15.3	15.3	89	13.5	0	0	-100000	0.0	1024.6	0	0.000	0.0
20100719 00:05	15.3	15.3	15.3	89	13.5	0	0	-100000	0.0	1024.6	0	0.000	0.0
20100719 00:10	15.2	15.2	15.2	89	13.4	0	0	-100000	0.0	1024.6	0	0.000	0.0
20100719 00:15	15.0	15.0	15.0	89	13.2	0	0	-100000	0.0	1024.6	0	0.000	0.0
20100719 00:20	15.0	15.0	15.0	89	13.2	0	2	135	0.0	1024.6	0	0.000	0.0
20100719 00:25	15.0	15.0	15.0	89	13.2	0	0	-100000	0.0	1024.6	0	0.000	0.0
20100719 00:30	15.0	15.0	15.0	90	13.4	0	3	135	0.0	1024.5	0	0.000	0.0
20100719 00:35	15.0	15.0	15.0	90	13.4	0	2	135	0.0	1024.5	0	0.000	0.0
20100719 00:40	15.0	15.0	15.0	90	13.4	0	5	135	0.0	1024.4	0	0.000	0.0
20100719 00:45	15.0	15.0	15.0	90	13.4	0	0	-100000	0.0	1024.4	0	0.000	0.0
20100719 00:50	15.0	15.0	15.0	90	13.4	0	2	135	0.0	1024.4	0	0.000	0.0
20100719 00:55	15.0	15.0	15.0	91	13.5	0	2	135	0.0	1024.2	0	0.000	0.0
20100719 01:00	15.0	15.0	15.0	91	13.5	0	3	135	0.0	1024.1	0	0.000	0.0
20100719 01:05	15.0	15.0	15.0	91	13.5	0	3	135	0.0	1023.9	0	0.000	0.0
20100719 01:10	15.0	15.0	15.0	91	13.5	2	5	135	0.0	1023.9	0	0.000	0.0
20100719 01:15	15.0	15.0	15.0	91	13.5	3	8	135	0.0	1023.8	0	0.000	0.0
20100719 01:20	15.0	15.0	15.0	91	13.5	2	8	135	0.0	1023.8	0	0.000	0.0
20100719 01:25	14.9	14.9	14.9	91	13.5	5	8	135	0.0	1023.7	0	0.000	0.0
20100719 01:30	14.8	14.8	14.8	91	13.4	5	8	135	0.0	1023.7	0	0.000	0.0
20100719 01:35	14.8	14.8	14.8	91	13.3	5	8	135	0.0	1023.6	0	0.000	0.0
20100719 01:40	14.7	14.7	14.7	91	13.3	2	6	135	0.0	1023.6	0	0.000	0.0
20100719 01:45	14.7	14.7	14.7	91	13.2	3	6	135	0.0	1023.7	0	0.000	0.0
20100719 01:50	14.6	14.6	14.6	91	13.1	2	6	135	0.0	1023.7	0	0.000	0.0
20100719 01:55	14.5	14.5	14.5	91	13.0	0	3	135	0.0	1023.6	0	0.000	0.0
20100719 02:00	14.4	14.4	14.4	91	13.0	2	6	135	0.0	1023.7	0	0.000	0.0
20100719 02:05	14.4	14.4	14.4	91	12.9	2	5	135	0.0	1023.5	0	0.000	0.0
20100719 02:10	14.3	14.3	14.3	91	12.9	2	3	135	0.0	1023.5	0	0.000	0.0
20100719 02:15	14.2	14.2	14.2	91	12.8	2	6	135	0.0	1023.4	0	0.000	0.0
20100719 02:20	14.2	14.2	14.2	91	12.7	2	5	135	0.0	1023.5	0	0.000	0.0
20100719 02:25	14.1	14.1	14.1	91	12.7	2	6	135	0.0	1023.5	0	0.000	0.0
20100719 02:30	14.1	14.1	14.1	91	12.7	2	5	135	0.0	1023.4	0	0.000	0.0
20100719 02:35	14.1	14.1	14.1	91	12.7	2	5	135	0.0	1023.4	0	0.000	0.0
20100719 02:40	14.1	14.1	14.1	91	12.7	2	6	135	0.0	1023.4	0	0.000	0.0
20100719 02:45	14.1	14.1	14.1	91	12.7	3	8	135	0.0	1023.4	0	0.000	0.0
20100719 02:50	14.1	14.1	14.1	91	12.7	3	8	90	0.0	1023.4	0	0.000	0.0
20100719 02:55	14.1	14.1	14.1	90	12.4	3	8	90	0.0	1023.3	0	0.000	0.0
20100719 03:00	14.1	14.1	14.1	90	12.4	3	6	90	0.0	1023.3	0	0.000	0.0
20100719 03:05	14.1	14.1	14.1	90	12.4	2	6	90	0.0	1023.6	0	0.000	0.0
20100719 03:10	14.1	14.1	14.1	90	12.4	2	6	90	0.0	1023.6	0	0.000	0.0
20100719 03:15	14.1	14.1	14.1	90	12.5	3	6	90	0.0	1023.5	0	0.000	0.0
20100719 03:20	14.1	14.1	14.1	90	12.5	3	8	90	0.0	1023.5	0	0.000	0.0
20100719 03:25	14.1	14.1	14.1	90	12.5	3	6	90	0.0	1023.4	0	0.000	0.0
20100719 03:30	14.1	14.1	14.1	89	12.3	3	6	90	0.0	1023.3	0	0.000	0.0
20100719 03:35	14.1	14.1	14.1	89	12.3	3	10	90	0.0	1023.3	0	0.000	0.0
20100719 03:40	14.1	14.1	14.1	89	12.3	3	6	90	0.0	1023.3	0	0.000	0.0
20100719 03:45	14.0	14.0	14.0	89	12.2	3	8	90	0.0	1023.2	0	0.000	0.0
20100719 03:50	13.9	13.9	13.9	90	12.3	3	8	90	0.0	1023.3	0	0.000	0.0
20100719 03:55	13.9	13.9	13.9	90	12.3	3	6	90	0.0	1023.2	0	0.000	0.0
20100719 04:00	13.8	13.8	13.8	90	12.2	3	8	90	0.0	1023.2	0	0.000	0.0
20100719 04:05	13.8	13.8	13.8	89	12.0	3	8	90	0.0	1023.2	0	0.000	0.0
20100719 04:10	13.7	13.7	13.7	89	11.9	3	6	90	0.0	1023.2	0	0.000	0.0
20100719 04:15	13.7	13.7	13.7	89	11.9	3	10	90	0.0	1023.1	0	0.000	0.0
20100719 04:20	13.7	13.7	13.7	89	11.9	3	8	90	0.0	1023.1	0	0.000	0.0
20100719 04:25	13.6	13.6	13.6	89	11.8	2	8	90	0.0	1023.1	0	0.000	0.0
20100719 04:30	13.6	13.6	13.6	89	11.8	3	8	68	0.0	1023.1	0	0.000	0.0
20100719 04:35	13.6	13.6	13.6	89	11.8	2	6	68	0.0	1023.2	0	0.000	0.0
20100719 04:40	13.6	13.6	13.6	89	11.8	3	8	90	0.0	1023.2	0	0.000	0.0
20100719 04:45	13.5	13.5	13.5	88	11.5	3	8	90	0.0	1023.2	0	0.000	0.0
20100719 04:50	13.4	13.4	13.4	89	11.7	2	6	90	0.0	1023.2	0	0.000	0.0
20100719 04:55	13.3	13.3	13.3	89	11.6	2	6	90	0.0	1023.2	0	0.000	0.0
20100719 05:00	13.3	13.3	13.3	89	11.5	3	6	90	0.0	1023.2	0	0.000	0.0
20100719 05:05	13.2	13.2	13.2	89	11.4	3	8	90	0.0	1023.0	0	0.000	0.0
20100719 05:10	13.1	13.1	13.1	89	11.3	3	6	90	0.0	1023.0	0	0.000	0.0
20100719 05:15	13.0	13.0	13.0	89	11.2	2	5	90	0.0	1023.1	0	0.000	0.0
20100719 05:20	12.9	12.9	12.9	89	11.1	2	5	90	0.0	1023.2	0	0.000	0.0
20100719 05:25	12.8	12.8	12.8	89	11.0	2	5	90	0.0	1023.2	0	0.000	0.0
20100719 05:30	12.7	12.7	12.7	90	11.1	0	3	90	0.0	1023.2	0	0.000	0.0
20100719 05:35	12.6	12.6	12.6	90	11.0	2	5	90	0.0	1023.1	0	0.000	0.0
20100719 05:40	12.5	12.5	12.5	90	10.9	2	5	90	0.0	1023.1	2	0.000	0.0
20100719 05:45	12.4	12.4	12.4	90	10.8	0	3	90	0.0	1023.1	6	0.000	0.0
20100719 05:50	12.3	12.3	12.3	90	10.7	2	6	90	0.0	1023.2	8	0.000	0.0
20100719 05:55	12.3	12.3	12.3	90	10.7	2	6	90	0.0	1023.2	10	0.000	0.0
20100719 06:00	12.3	12.3	12.3	91	10.9	2	6	90	0.0	1023.2	12	0.000	0.0
20100719 06:05	12.3	12.3	12.3	91	10.8	0	5	90	0.0	1023.2	14	0.000	0.0
20100719 06:10	12.3	12.3	12.3	91	10.8	2	5	90	0.0	1023.1	17	0.000	0.0
20100719 06:15	12.3	12.3	12.3	91	10.9	2	6	90	0.0	1023.1	19	0.000	0.0
20100719 06:20	12.3	12.3	12.3	91	10.9	0	3	90	0.0	1023.1	22	0.000	0.0
20100719 06:25	12.4	12.4	12.4	91	11.0	2	6	90	0.0	1023.1	26	0.000	0.0
20100719 06:30	12.5	12.5	12.5	91	11.1	2	6	90	0.0	1023.1	31	0.000	0.0
20100719 06:35	12.7	12.7	12.7	91	11.2	3	8	112	0.0	1023.2	38	0.000	0.0
20100719 06:40	12.8	12.8	12.8	90	11.2	3	6	112	0.0	1023.2	45	0.000	0.0
20100719 06:45	13.0	13.0	13.0	89	11.2	2	5	112	0.0	1023.2	51	0.000	0.0
20100719 06:50	13.3	13.3	13.3	88	11.3	3	8	112	0.0	1023.0	57	0.000	0.0
20100719 06:55	13.5	13.5	13.5	87	11.4	5	8	112	0.0	1023.0	63	0.000	0.0
20100719 07:00	13.7	13.7	13.7	86	11.4	3	6	135	0.0	1023.1	117	0.025	0.0
20100719 07:05	14.0	14.0	14.0	85	11.5	3	6	135	0.0	1023.0	131	0.000	0.0
20100719 07:10	14.3	14.3	14.3	84	11.7	2	5	135	0.0	1022.9	158	0.000	0.0
20100719 07:15	14.6	14.6	14.6	82	11.5	5	10	112	0.0	1022.9	112	0.000	0.0
20100719 07:20	14.6	14.6	14.6	82	11.5	2	6	112	0.0	1022.9	67	0.000	0.0
20100719 07:25	14.4	14.4	14.4	82	11.4	3	8	135	0.0	1022.9	53	0.000	0.0
20100719 07:30	14.3	14.3	14.3	84	11.7	2	6	68	0.0	1022.9	58	0.000	0.5
20100719 07:35	14.2	14.2	14.2	84	11.6	2	5	68	0.0	1022.9	74	0.000	0.5
20100719 07:40	14.2	14.2	14.2	84	11.5	2	5	68	0.0	1022.9	87	0.000	0.6
20100719 07:45	14.1	14.1	14.1	84	11.4	2	5	68	0.0	1022.9	82	0.000	0.6
20100719 07:50	14.1	14.1	14.1	84	11.4	0	2	68	0.0	1022.9	128	0.000	0.7
20100719 07:55	14.2	14.2	14.2	84	11.6	2	6	68	0.0	1022.8	120	0.000	0.7
20100719 08:00	14.4	14.4	14.4	84	11.7	3	6	68	0.0	1022.8	168	0.051	0.9
20100719 08:05	14.7	14.7	14.7	83	11.8	3	8	68	0.0	1023.0	158	0.000	0.9
20100719 08:10	15.0	15.0	15.0	82	11.9	3	8	90	0.0	1023.0	229	0.000	1.0
20100719 08:15	15.3	15.3	15.3	80	11.9	3	10	90	0.0	1022.9	343	0.000	1.2
20100719 08:20	15.7	15.7	15.7	80	12.3	3	8	135	0.0	1022.9	324	0.000	1.3
20100719 08:25	16.2	16.2	16.2	76	11.9	5	10	90	0.0	1022.9	360	0.000	1.4
20100719 08:30	16.4	16.4	16.4	75	12.0	6	11	112	0.0	1022.8	377	0.000	1.5
20100719 08:35	16.7	16.7	16.7	73	11.8	6	11	112	0.0	1022.8	392	0.000	1.6
20100719 08:40	16.8	16.8	16.8	74	12.1	8	16	112	0.0	1022.8	406	0.000	1.7
20100719 08:45	16.9	16.9	16.9	73	12.0	6	11	112	0.0	1022.8	418	0.000	1.8
20100719 08:50	16.9	16.9	16.9	73	12.1	6	14	112	0.0	1022.8	430	0.000	1.9
20100719 08:55	16.9	16.9	16.9	72	11.9	8	16	90	0.0	1022.8	442	0.000	2.0
20100719 09:00	17.2	17.2	17.2	72	12.1	6	14	90	0.0	1022.8	456	0.203	2.1
20100719 09:05	17.4	17.4	17.4	71	12.1	10	21	112	0.0	1022.9	467	0.000	2.2
20100719 09:10	17.7	17.7	17.7	69	11.9	5	10	90	0.0	1022.8	483	0.000	2.4
20100719 09:15	17.8	17.8	17.8	68	11.8	6	16	135	0.0	1022.7	494	0.000	2.5
20100719 09:20	17.9	17.9	17.9	67	11.7	10	19	112	0.0	1022.8	507	0.000	2.6
20100719 09:25	18.0	18.0	18.0	66	11.5	8	18	90	0.0	1022.8	518	0.000	2.7
20100719 09:30	18.1	18.1	18.1	66	11.6	11	21	90	0.0	1022.8	530	0.000	2.9
20100719 09:35	18.1	18.1	18.1	68	12.1	8	19	90	0.0	1022.6	543	0.000	3.0
20100719 09:40	18.2	18.2	18.2	66	11.8	8	18	90	0.0	1022.6	555	0.000	3.1
20100719 09:45	18.3	18.3	18.3	68	12.3	6	18	90	0.0	1022.7	569	0.000	3.3
20100719 09:50	18.3	18.3	18.3	64	11.3	11	23	68	0.0	1022.7	580	0.000	3.4
20100719 09:55	18.4	18.4	18.4	65	11.7	10	18	90	0.0	1022.8	597	0.000	3.6
20100719 10:00	18.6	18.6	18.6	65	11.8	10	23	68	0.0	1022.7	609	0.330	3.7
20100719 10:05	18.6	18.6	18.6	62	11.1	10	19	90	0.0	1022.8	624	0.000	3.9
20100719 10:10	18.7	18.7	18.7	63	11.5	8	18	90	0.0	1022.8	627	0.000	4.0
20100719 10:15	18.8	18.8	18.8	62	11.3	10	21	68	0.0	1022.7	621	0.000	4.1
20100719 10:20	18.7	18.7	18.7	62	11.2	11	21	90	0.0	1022.8	579	0.000	4.2
20100719 10:25	18.7	18.7	18.7	62	11.2	6	16	90	0.0	1022.8	535	0.000	4.1
20100719 10:30	18.8	18.8	18.8	61	11.1	8	18	90	0.0	1022.7	682	0.000	4.7
20100719 10:35	18.7	18.7	18.7	62	11.3	13	23	68	0.0	1022.7	691	0.000	4.8
20100719 10:40	18.8	18.8	18.8	62	11.4	11	19	90	0.0	1022.6	698	0.000	5.0
20100719 10:45	19.2	19.2	19.2	58	10.7	8	19	112	0.0	1022.6	702	0.000	5.1
20100719 10:50	19.2	19.2	19.2	56	10.2	13	23	68	0.0	1022.6	709	0.000	5.2
20100719 10:55	19.2	19.2	19.2	59	11.0	11	24	68	0.0	1022.6	722	0.000	5.4
20100719 11:00	19.2	19.2	19.2	59	11.0	8	18	90	0.0	1022.6	726	0.432	5.5
20100719 11:05	19.3	19.3	19.3	58	10.9	10	21	68	0.0	1022.5	740	0.000	5.7
20100719 11:10	19.4	19.4	19.4	58	11.0	8	21	68	0.0	1022.5	748	0.000	5.9
20100719 11:15	19.6	19.6	19.6	57	10.8	10	23	68	0.0	1022.6	754	0.000	6.1
20100719 11:20	19.4	19.4	19.4	58	11.0	10	19	68	0.0	1022.5	763	0.000	6.3
20100719 11:25	19.6	19.6	19.6	58	11.1	13	23	68	0.0	1022.5	774	0.000	6.4
20100719 11:30	19.7	19.7	19.7	58	11.2	11	23	112	0.0	1022.5	777	0.000	6.5
20100719 11:35	19.7	19.7	19.7	58	11.2	13	23	45	0.0	1022.4	784	0.000	6.7
20100719 11:40	19.7	19.7	19.7	58	11.2	11	23	68	0.0	1022.4	792	0.000	6.8
20100719 11:45	19.9	19.9	19.9	57	11.2	10	18	90	0.0	1022.2	800	0.000	7.0
20100719 11:50	19.9	19.9	19.9	54	10.4	8	18	68	0.0	1022.2	805	0.000	7.2
20100719 11:55	20.0	20.0	20.0	54	10.4	10	19	90	0.0	1022.2	812	0.000	7.2
20100719 12:00	20.2	20.2	20.2	56	11.1	8	14	135	0.0	1022.2	816	0.508	7.3
20100719 12:05	20.3	20.3	20.3	54	10.7	11	23	68	0.0	1022.2	820	0.000	7.5
20100719 12:10	20.4	20.4	20.4	55	11.1	6	14	68	0.0	1022.1	824	0.000	7.5
20100719 12:15	20.5	20.5	20.5	55	11.1	10	24	68	0.0	1022.0	830	0.000	7.6
20100719 12:20	20.5	20.5	20.5	54	10.9	10	21	68	0.0	1022.1	835	0.000	7.7
20100719 12:25	20.6	20.6	20.6	56	11.5	8	18	112	0.0	1022.0	836	0.000	7.8
20100719 12:30	20.8	20.8	20.8	55	11.4	6	11	158	0.0	1022.0	841	0.000	7.9
20100719 12:35	20.8	20.8	20.8	55	11.5	8	14	68	0.0	1022.0	846	0.000	8.1
20100719 12:40	20.8	20.8	20.8	58	12.3	6	16	68	0.0	1021.9	850	0.000	8.1
20100719 12:45	21.2	21.2	21.2	57	12.3	8	18	112	0.0	1021.9	851	0.000	8.1
20100719 12:50	21.3	21.3	21.3	56	12.2	8	14	112	0.0	1021.9	853	0.000	8.2
20100719 12:55	21.3	21.3	21.3	55	11.9	8	18	68	0.0	1021.8	853	0.000	8.2
20100719 13:00	21.2	21.2	21.2	57	12.4	6	18	112	0.0	1021.7	856	0.533	8.2
20100719 13:05	21.4	21.4	21.4	56	12.2	8	18	112	0.0	1021.7	859	0.000	8.2
20100719 13:10	21.4	21.4	21.4	54	11.7	8	19	68	0.0	1021.6	857	0.000	8.2
20100719 13:15	21.4	21.4	21.4	54	11.7	8	21	90	0.0	1021.6	854	0.000	8.2
20100719 13:20	21.3	21.3	21.3	54	11.6	11	23	45	0.0	1021.5	859	0.000	8.3
20100719 13:25	21.4	21.4	21.4	54	11.7	10	18	90	0.0	1021.5	859	0.000	8.3
20100719 13:30	21.6	21.6	21.6	55	12.2	8	21	68	0.0	1021.4	861	0.000	8.3
20100719 13:35	21.6	21.6	21.6	56	12.4	5	10	90	0.0	1021.5	859	0.000	8.3
20100719 13:40	21.6	21.6	21.6	55	12.2	10	19	68	0.0	1021.4	857	0.000	8.3
20100719 13:45	21.8	21.8	21.8	56	12.6	8	19	112	0.0	1021.4	865	0.000	8.3
20100719 13:50	22.0	22.0	22.0	54	12.3	8	11	135	0.0	1021.2	858	0.000	8.2
20100719 13:55	22.1	22.1	22.1	52	11.8	10	21	112	0.0	1021.2	855	0.000	8.2
20100719 14:00	22.1	22.1	22.1	53	12.0	6	14	90	0.0	1021.1	852	0.559	8.1
20100719 14:05	22.0	22.0	22.0	52	11.7	11	23	68	0.0	1021.2	850	0.000	8.1
20100719 14:10	22.1	22.1	22.1	53	12.1	6	18	112	0.0	1021.2	849	0.000	8.0
20100719 14:15	22.1	22.1	22.1	53	12.1	6	14	45	0.0	1021.1	840	0.000	7.8
20100719 14:20	22.2	22.2	22.2	52	11.8	10	21	68	0.0	1021.0	626	0.000	6.8
20100719 14:25	22.1	22.1	22.1	52	11.7	13	19	68	0.0	1020.9	841	0.000	7.8
20100719 14:30	22.2	22.2	22.2	50	11.2	10	18	90	0.0	1020.9	829	0.000	7.6
20100719 14:35	22.4	22.4	22.4	50	11.4	10	16	135	0.0	1020.9	835	0.000	7.7
20100719 14:40	22.6	22.6	22.6	51	11.9	8	14	135	0.0	1020.7	828	0.000	7.5
20100719 14:45	22.7	22.7	22.7	49	11.4	6	16	90	0.0	1020.6	824	0.000	7.4
20100719 14:50	22.7	22.7	22.7	52	12.3	5	11	90	0.0	1020.5	813	0.000	7.3
20100719 14:55	22.8	22.8	22.8	48	11.2	6	19	90	0.0	1020.5	804	0.000	7.1
20100719 15:00	22.8	22.8	22.8	46	10.6	10	19	68	0.0	1020.5	806	0.533	7.0
20100719 15:05	22.9	22.9	22.9	49	11.6	8	16	68	0.0	1020.4	796	0.000	6.9
20100719 15:10	22.8	22.8	22.8	47	10.9	8	18	68	0.0	1020.4	791	0.000	6.8
20100719 15:15	22.7	22.7	22.7	48	11.1	10	16	68	0.0	1020.5	786	0.000	6.7
20100719 15:20	22.8	22.8	22.8	47	10.9	6	13	90	0.0	1020.4	780	0.000	6.6
20100719 15:25	22.9	22.9	22.9	47	11.0	8	16	68	0.0	1020.3	771	0.000	6.4
20100719 15:30	22.7	22.7	22.7	48	11.1	6	14	68	0.0	1020.3	765	0.000	6.3
20100719 15:35	22.9	22.9	22.9	49	11.6	10	21	90	0.0	1020.2	752	0.000	6.0
20100719 15:40	23.2	23.2	23.2	45	10.6	8	18	90	0.0	1020.3	747	0.000	5.9
20100719 15:45	23.2	23.2	23.2	47	11.3	6	18	112	0.0	1020.2	740	0.000	5.8
20100719 15:50	23.4	23.4	23.4	46	11.2	8	18	112	0.0	1020.2	730	0.000	5.6
20100719 15:55	23.6	23.6	23.6	44	10.6	8	21	135	0.0	1020.2	723	0.000	5.5
20100719 16:00	23.4	23.4	23.4	46	11.1	8	14	68	0.0	1020.1	716	0.533	5.4
20100719 16:05	23.3	23.3	23.3	46	11.0	8	16	112	0.0	1020.1	707	0.000	5.2
20100719 16:10	23.4	23.4	23.4	46	11.1	6	11	90	0.0	1020.1	695	0.000	5.0
20100719 16:15	23.3	23.3	23.3	46	11.0	8	19	90	0.0	1020.1	683	0.000	4.8
20100719 16:20	23.4	23.4	23.4	46	11.1	6	14	112	0.0	1019.9	672	0.000	4.7
20100719 16:25	23.3	23.3	23.3	46	11.0	5	10	112	0.0	1019.9	658	0.000	4.5
20100719 16:30	23.3	23.3	23.3	46	11.0	8	16	68	0.0	1019.9	648	0.000	4.3
20100719 16:35	23.3	23.3	23.3	47	11.3	5	14	68	0.0	1019.8	636	0.000	4.1
20100719 16:40	23.4	23.4	23.4	48	11.7	6	16	22	0.0	1019.8	624	0.000	4.0
20100719 16:45	23.5	23.5	23.5	47	11.5	8	14	90	0.0	1019.7	612	0.000	3.8
20100719 16:50	23.4	23.4	23.4	46	11.2	8	14	90	0.0	1019.7	603	0.000	3.7
20100719 16:55	23.3	23.3	23.3	47	11.3	8	16	68	0.0	1019.7	591	0.000	3.5
20100719 17:00	23.3	23.3	23.3	48	11.6	6	18	90	0.0	1019.6	579	0.457	3.4
20100719 17:05	23.3	23.3	23.3	48	11.6	5	10	45	0.0	1019.7	563	0.000	3.2
20100719 17:10	23.3	23.3	23.3	47	11.3	6	16	90	0.0	1019.7	554	0.000	3.1
20100719 17:15	23.4	23.4	23.4	48	11.7	5	10	112	0.0	1019.7	533	0.000	2.9
20100719 17:20	23.3	23.3	23.3	48	11.7	10	19	68	0.0	1019.7	527	0.000	2.8
20100719 17:25	23.3	23.3	23.3	48	11.7	10	16	45	0.0	1019.6	512	0.000	2.6
20100719 17:30	23.3	23.3	23.3	48	11.6	8	18	22	0.0	1019.6	501	0.000	2.5
20100719 17:35	23.3	23.3	23.3	49	12.0	8	14	135	0.0	1019.6	493	0.000	2.4
20100719 17:40	23.3	23.3	23.3	47	11.3	5	16	112	0.0	1019.5	475	0.000	2.2
20100719 17:45	23.3	23.3	23.3	49	12.0	5	10	90	0.0	1019.5	458	0.000	2.1
20100719 17:50	23.4	23.4	23.4	49	12.1	6	14	112	0.0	1019.5	448	0.000	2.0
20100719 17:55	23.3	23.3	23.3	47	11.3	8	16	68	0.0	1019.5	435	0.000	1.9
20100719 18:00	23.2	23.2	23.2	48	11.6	6	14	45	0.0	1019.5	421	0.356	1.8
20100719 18:05	23.3	23.3	23.3	46	11.0	5	11	68	0.0	1019.4	411	0.000	1.7
20100719 18:10	23.2	23.2	23.2	48	11.5	5	10	90	0.0	1019.3	396	0.000	1.6
20100719 18:15	23.2	23.2	23.2	47	11.2	6	13	90	0.0	1019.2	384	0.000	1.5
20100719 18:20	23.2	23.2	23.2	48	11.6	6	14	112	0.0	1019.2	371	0.000	1.4
20100719 18:25	23.2	23.2	23.2	48	11.5	6	11	68	0.0	1019.2	360	0.000	1.3
20100719 18:30	23.1	23.1	23.1	49	11.8	5	10	68	0.0	1019.1	346	0.000	1.2
20100719 18:35	23.1	23.1	23.1	49	11.8	6	14	45	0.0	1019.0	335	0.000	1.1
20100719 18:40	23.1	23.1	23.1	49	11.8	8	18	68	0.0	1019.1	320	0.000	1.0
20100719 18:45	22.9	22.9	22.9	50	12.0	6	16	68	0.0	1019.0	306	0.000	1.0
20100719 18:50	22.8	22.8	22.8	50	11.9	6	16	68	0.0	1019.0	294	0.000	0.9
20100719 18:55	22.8	22.8	22.8	51	12.1	5	11	68	0.0	1018.9	281	0.000	0.8
20100719 19:00	22.8	22.8	22.8	50	11.8	8	14	68	0.0	1019.0	267	0.254	0.7
20100719 19:05	22.7	22.7	22.7	51	12.1	10	16	68	0.0	1019.0	255	0.000	0.7
20100719 19:10	22.7	22.7	22.7	51	12.0	8	16	68	0.0	1019.0	243	0.000	0.5
20100719 19:15	22.6	22.6	22.6	52	12.2	6	14	68	0.0	1019.0	225	0.000	0.6
20100719 19:20	22.5	22.5	22.5	53	12.4	5	8	45	0.0	1019.0	186	0.000	0.5
20100719 19:25	22.4	22.4	22.4	52	12.0	6	11	68	0.0	1018.9	54	0.000	0.1
20100719 19:30	22.3	22.3	22.3	52	11.9	6	11	90	0.0	1019.0	52	0.000	0.0
20100719 19:35	22.1	22.1	22.1	53	12.1	6	11	90	0.0	1019.0	50	0.000	0.0
20100719 19:40	22.0	22.0	22.0	55	12.5	3	6	68	0.0	1018.9	48	0.000	0.0
20100719 19:45	21.9	21.9	21.9	54	12.2	5	11	68	0.0	1018.9	47	0.000	0.0
20100719 19:50	21.8	21.8	21.8	55	12.4	5	8	90	0.0	1019.1	45	0.000	0.0
20100719 19:55	21.7	21.7	21.7	56	12.6	5	8	68	0.0	1019.1	43	0.000	0.0
20100719 20:00	21.6	21.6	21.6	57	12.7	5	11	90	0.0	1019.1	40	0.102	0.0
20100719 20:05	21.4	21.4	21.4	56	12.3	5	10	90	0.0	1018.7	38	0.000	0.0
20100719 20:10	21.3	21.3	21.3	57	12.4	3	10	90	0.0	1018.9	34	0.000	0.0
20100719 20:15	21.1	21.1	21.1	57	12.3	3	8	90	0.0	1018.9	31	0.000	0.0
20100719 20:20	20.9	20.9	20.9	58	12.4	2	5	90	0.0	1018.9	28	0.000	0.0
20100719 20:25	20.8	20.8	20.8	59	12.5	3	6	112	0.0	1018.9	25	0.000	0.0
20100719 20:30	20.7	20.7	20.7	59	12.4	3	6	112	0.0	1018.9	22	0.000	0.0
20100719 20:35	20.5	20.5	20.5	60	12.5	2	6	90	0.0	1018.9	19	0.000	0.0
20100719 20:40	20.3	20.3	20.3	60	12.3	2	5	90	0.0	1018.9	16	0.000	0.0
20100719 20:45	20.2	20.2	20.2	60	12.2	2	5	90	0.0	1019.0	12	0.000	0.0
20100719 20:50	20.1	20.1	20.1	60	12.0	2	6	90	0.0	1019.0	11	0.000	0.0
20100719 20:55	19.9	19.9	19.9	61	12.1	2	5	90	0.0	1019.0	8	0.000	0.0
20100719 21:00	19.8	19.8	19.8	61	12.0	0	5	90	0.0	1019.1	6	0.025	0.0
20100719 21:05	19.6	19.6	19.6	62	12.1	2	6	112	0.0	1019.0	3	0.000	0.0
20100719 21:10	19.5	19.5	19.5	62	12.0	0	5	112	0.0	1019.0	0	0.000	0.0
20100719 21:15	19.3	19.3	19.3	63	12.1	0	3	112	0.0	1019.1	0	0.000	0.0
20100719 21:20	19.2	19.2	19.2	64	12.2	0	5	112	0.0	1019.1	0	0.000	0.0
20100719 21:25	19.1	19.1	19.1	64	12.1	0	2	112	0.0	1019.1	0	0.000	0.0
20100719 21:30	19.0	19.0	19.0	65	12.3	0	3	112	0.0	1019.3	0	0.000	0.0
20100719 21:35	18.9	18.9	18.9	65	12.2	0	3	112	0.0	1019.3	0	0.000	0.0
20100719 21:40	18.8	18.8	18.8	66	12.3	0	2	112	0.0	1019.3	0	0.000	0.0
20100719 21:45	18.7	18.7	18.7	67	12.4	0	3	112	0.0	1019.3	0	0.000	0.0
20100719 21:50	18.6	18.6	18.6	67	12.3	0	2	112	0.0	1019.4	0	0.000	0.0
20100719 21:55	18.4	18.4	18.4	68	12.4	0	3	112	0.0	1019.3	0	0.000	0.0
20100719 22:00	18.4	18.4	18.4	68	12.4	0	3	112	0.0	1019.4	0	0.000	0.0
20100719 22:05	18.3	18.3	18.3	69	12.5	2	6	112	0.0	1019.3	0	0.000	0.0
20100719 22:10	18.3	18.3	18.3	68	12.3	2	5	112	0.0	1019.3	0	0.000	0.0
20100719 22:15	18.2	18.2	18.2	69	12.4	2	5	112	0.0	1019.4	0	0.000	0.0
20100719 22:20	18.2	18.2	18.2	69	12.4	0	5	112	0.0	1019.3	0	0.000	0.0
20100719 22:25	18.2	18.2	18.2	70	12.6	2	6	112	0.0	1019.3	0	0.000	0.0
20100719 22:30	18.1	18.1	18.1	70	12.5	3	6	112	0.0	1019.3	0	0.000	0.0
20100719 22:35	18.1	18.1	18.1	70	12.5	3	8	112	0.0	1019.3	0	0.000	0.0
20100719 22:40	18.0	18.0	18.0	71	12.7	5	10	112	0.0	1019.4	0	0.000	0.0
20100719 22:45	17.9	17.9	17.9	71	12.6	6	8	135	0.0	1019.3	0	0.000	0.0
20100719 22:50	17.8	17.8	17.8	72	12.7	6	10	112	0.0	1019.2	0	0.000	0.0
20100719 22:55	17.8	17.8	17.8	72	12.7	6	8	112	0.0	1019.3	0	0.000	0.0
20100719 23:00	17.7	17.7	17.7	73	12.8	6	11	112	0.0	1019.2	0	0.025	0.0
20100719 23:05	17.6	17.6	17.6	73	12.7	6	10	112	0.0	1019.2	0	0.000	0.0
20100719 23:10	17.6	17.6	17.6	74	12.9	6	10	135	0.0	1019.1	0	0.000	0.0
20100719 23:15	17.5	17.5	17.5	75	13.0	6	8	135	0.0	1019.1	0	0.000	0.0
20100719 23:20	17.4	17.4	17.4	74	12.8	6	8	135	0.0	1019.2	0	0.000	0.0
20100719 23:25	17.4	17.4	17.4	75	12.9	5	8	135	0.0	1019.2	0	0.000	0.0
20100719 23:30	17.3	17.3	17.3	76	13.0	5	8	135	0.0	1019.1	0	0.000	0.0
20100719 23:35	17.1	17.1	17.1	76	12.8	5	8	135	0.0	1019.1	0	0.000	0.0
20100719 23:40	17.0	17.0	17.0	77	12.9	5	6	135	0.0	1019.1	0	0.000	0.0
20100719 23:45	16.9	16.9	16.9	77	12.8	2	6	135	0.0	1019.0	0	0.000	0.0
20100719 23:50	16.8	16.8	16.8	77	12.7	3	6	135	0.0	1019.0	0	0.000	0.0
20100719 23:55	16.7	16.7	16.7	78	12.8	3	8	135	0.0	1019.0	0	0.000	0.0



Please note the license to use and transfer of this data:
http://creativecommons.org/licenses/by-nc-sa/3.0/deed.en

Bitte beachten sie die Lizenz zur Verwertung und Weitergabe der Daten:
http://creativecommons.org/licenses/by-nc-sa/3.0/deed.de

zurück zur Übersicht der Archivdaten (Monats und Tagesdaten)

Cookies helfen bei der Bereitstellung von Inhalten. Durch die Nutzung dieser Seiten erklärst du dich damit einverstanden, dass Cookies auf deinem Rechner gespeichert werden. Weitere Information